Terminal Aerodrome Forecast
Issued by NWS Burlington, VT

Home | Current Version | Previous Version | Text Only | Print | Product List | Glossary On
Versions: 1 2 3 4 5 6 7 8 9 10 11 12 13 14 15 16 17 18 19 20 21 22 23 24 25 26 27 28 29 30 31 32 33 34 35 36 37 38 39 40
000
FTUS41 KBTV 221134
TAFBTV
TAF
KBTV 221134Z 2212/2312 00000KT P6SM BKN180
     FM221800 VRB04KT P6SM VCSH OVC090
     FM222000 VRB04KT P6SM OVC070
     FM230600 15005KT P6SM OVC045
     FM230900 16007KT P6SM BKN050
     FM231100 16010KT P6SM BKN040=

USA.gov is the U.S. government's official web portal to all federal, state and local government web resources and services.